createdAt,value
2019-04-26T00:02:26.534Z,68.90
2019-04-26T00:08:33.196Z,68.65
2019-04-26T00:14:53.532Z,67.72
2019-04-26T00:20:59.777Z,67.48
2019-04-26T00:27:06.036Z,67.91
2019-04-26T00:33:12.436Z,68.32
2019-04-26T00:39:20.261Z,68.57
2019-04-26T00:45:30.622Z,67.61
2019-04-26T00:51:37.547Z,67.19
2019-04-26T00:57:44.275Z,66.96
2019-04-26T01:03:50.219Z,66.82
2019-04-26T01:09:56.240Z,68.33
2019-04-26T01:16:02.145Z,69.10
2019-04-26T01:22:12.394Z,69.71
2019-04-26T01:28:29.620Z,70.21
2019-04-26T01:34:36.090Z,70.39
2019-04-26T01:40:44.075Z,70.47
2019-04-26T01:46:50.577Z,70.74
2019-04-26T01:52:57.424Z,70.29
2019-04-26T01:59:03.206Z,69.41
2019-04-26T02:05:15.607Z,69.73
2019-04-26T02:11:22.569Z,69.76
2019-04-26T02:17:29.362Z,67.72
2019-04-26T02:23:44.630Z,66.62
2019-04-26T02:29:50.503Z,66.16
2019-04-26T02:35:56.506Z,65.82
2019-04-26T02:42:06.769Z,65.56
2019-04-26T02:48:38.554Z,65.65
2019-04-26T02:54:56.240Z,65.64
2019-04-26T03:01:02.944Z,65.86
2019-04-26T03:07:22.192Z,66.44
2019-04-26T03:13:48.471Z,67.01
2019-04-26T03:20:04.732Z,67.52
2019-04-26T03:26:44.703Z,67.61
2019-04-26T03:33:52.139Z,67.81
2019-04-26T03:40:09.874Z,68.05
2019-04-26T03:46:58.183Z,68.44
2019-04-26T03:53:39.753Z,68.75
2019-04-26T04:00:53.313Z,69.12
2019-04-26T04:07:04.938Z,69.48
2019-04-26T04:14:08.650Z,69.49
2019-04-26T04:20:48.673Z,69.77
2019-04-26T04:27:17.757Z,69.56
2019-04-26T04:33:47.355Z,69.44
2019-04-26T04:40:27.083Z,69.66
2019-04-26T04:47:34.797Z,70.56
2019-04-26T04:54:05.589Z,71.14
2019-04-26T05:00:47.214Z,71.80
2019-04-26T05:07:25.688Z,72.25
2019-04-26T05:13:55.519Z,72.34
2019-04-26T05:20:56.512Z,72.04
2019-04-26T05:27:51.143Z,70.92
2019-04-26T05:34:18.758Z,70.39
2019-04-26T05:41:42.737Z,70.07
2019-04-26T05:48:10.924Z,69.49
2019-04-26T05:55:19.801Z,69.20
2019-04-26T06:02:49.995Z,69.38
2019-04-26T06:09:54.771Z,69.40
2019-04-26T06:16:21.275Z,70.30
2019-04-26T06:22:58.946Z,71.10
2019-04-26T06:29:12.248Z,71.83
2019-04-26T06:35:23.252Z,71.16
2019-04-26T06:42:26.293Z,69.04
2019-04-26T06:48:58.967Z,68.41
2019-04-26T06:55:24.839Z,67.59
2019-04-26T07:02:01.115Z,67.21
2019-04-26T07:08:57.800Z,67.06
2019-04-26T07:15:48.736Z,66.78
2019-04-26T07:22:39.425Z,66.43
2019-04-26T07:29:34.769Z,66.18
2019-04-26T07:36:55.647Z,66.07
2019-04-26T07:43:48.408Z,66.54
2019-04-26T07:51:13.669Z,66.52
2019-04-26T07:58:23.377Z,66.46
2019-04-26T08:04:38.960Z,66.74
2019-04-26T08:11:12.903Z,66.70
2019-04-26T08:17:44.450Z,65.91
2019-04-26T08:24:28.401Z,65.74
2019-04-26T08:30:40.550Z,65.58
2019-04-26T08:36:57.269Z,64.55
2019-04-26T08:43:18.445Z,63.46
2019-04-26T08:49:55.728Z,62.38
2019-04-26T08:56:04.450Z,61.98
2019-04-26T09:02:33.822Z,61.92
2019-04-26T09:08:43.469Z,60.86
2019-04-26T09:14:54.051Z,60.43
2019-04-26T09:20:59.916Z,59.95
2019-04-26T09:27:30.396Z,59.86
2019-04-26T09:33:43.579Z,59.62
2019-04-26T09:39:49.435Z,59.51
2019-04-26T09:46:23.014Z,59.13
2019-04-26T09:52:32.346Z,59.31
2019-04-26T09:58:38.499Z,59.60
2019-04-26T10:04:44.278Z,59.38
2019-04-26T10:10:51.766Z,58.52
2019-04-26T10:17:07.921Z,58.22
2019-04-26T10:23:13.889Z,57.28
2019-04-26T10:29:21.672Z,56.63
2019-04-26T10:35:27.492Z,56.66
2019-04-26T10:41:33.381Z,55.83
2019-04-26T10:47:39.958Z,55.67
2019-04-26T10:53:54.720Z,54.63
2019-04-26T11:00:03.642Z,54.58
2019-04-26T11:06:09.711Z,54.07
2019-04-26T11:12:18.223Z,54.62
2019-04-26T11:18:27.685Z,54.23
2019-04-26T11:24:31.869Z,53.59
2019-04-26T11:30:38.681Z,52.30
2019-04-26T11:36:44.536Z,51.38
2019-04-26T11:42:50.706Z,51.08
2019-04-26T11:48:59.163Z,51.06
2019-04-26T11:55:05.213Z,50.29
2019-04-26T12:01:12.853Z,49.20
2019-04-26T12:07:30.616Z,48.61
2019-04-26T12:13:36.349Z,48.22
2019-04-26T12:19:42.382Z,48.03
2019-04-26T12:25:48.371Z,47.68
2019-04-26T12:31:54.736Z,47.95
2019-04-26T12:38:00.492Z,46.97
2019-04-26T12:44:06.589Z,46.38
2019-04-26T12:50:12.830Z,46.63
2019-04-26T12:56:20.636Z,45.89
2019-04-26T13:02:26.853Z,45.16
2019-04-26T13:08:32.771Z,46.03
2019-04-26T13:14:56.646Z,45.06
2019-04-26T13:21:04.342Z,44.98
2019-04-26T13:27:12.062Z,44.56
2019-04-26T13:33:23.169Z,44.44
2019-04-26T13:39:28.298Z,42.80
2019-04-26T13:45:53.158Z,41.05
2019-04-26T13:51:59.129Z,41.44
2019-04-26T13:58:04.878Z,40.40
2019-04-26T14:04:11.263Z,39.35
2019-04-26T14:10:17.724Z,38.53
2019-04-26T14:16:23.816Z,39.09
2019-04-26T14:22:37.079Z,38.91
2019-04-26T14:28:42.264Z,39.05
2019-04-26T14:34:48.195Z,39.15
2019-04-26T14:41:03.843Z,38.73
2019-04-26T14:47:13.115Z,38.35
2019-04-26T14:53:09.793Z,38.76
2019-04-26T14:59:17.348Z,38.50
2019-04-26T15:05:43.089Z,39.52
2019-04-26T15:11:55.307Z,39.07
2019-04-26T15:17:59.488Z,40.11
2019-04-26T15:24:05.121Z,38.91
2019-04-26T15:30:13.405Z,38.33
2019-04-26T15:36:19.584Z,37.96
2019-04-26T15:42:43.306Z,37.42
2019-04-26T15:49:12.529Z,37.68
2019-04-26T15:55:18.613Z,37.65
2019-04-26T16:01:24.405Z,37.61
2019-04-26T16:07:30.252Z,38.54
2019-04-26T16:13:36.165Z,38.21
2019-04-26T16:19:42.030Z,37.72
2019-04-26T16:25:47.863Z,38.77
2019-04-26T16:32:22.020Z,39.87
2019-04-26T16:38:34.197Z,40.80
2019-04-26T16:44:44.814Z,42.28
2019-04-26T16:50:47.767Z,42.66
2019-04-26T16:56:59.123Z,42.48
2019-04-26T17:03:06.460Z,44.50
2019-04-26T17:09:09.696Z,46.54
2019-04-26T17:15:17.554Z,45.85
2019-04-26T17:21:25.841Z,44.77
2019-04-26T17:27:33.037Z,41.74
2019-04-26T17:33:39.018Z,42.31
2019-04-26T17:39:47.525Z,40.61
2019-04-26T17:45:52.788Z,41.23
2019-04-26T17:52:00.358Z,43.38
2019-04-26T17:58:12.478Z,43.94
2019-04-26T18:04:16.113Z,46.88
2019-04-26T18:10:22.069Z,50.44
2019-04-26T18:16:29.701Z,53.69
2019-04-26T18:22:43.213Z,56.27
2019-04-26T18:28:51.823Z,56.58
2019-04-26T18:34:56.943Z,56.61
2019-04-26T18:41:03.660Z,57.26
2019-04-26T18:47:20.994Z,58.41
2019-04-26T18:53:55.372Z,60.82
2019-04-26T19:00:01.549Z,60.67
2019-04-26T19:06:07.988Z,61.71
2019-04-26T19:12:18.426Z,62.49
2019-04-26T19:18:42.443Z,63.27
2019-04-26T19:24:49.454Z,63.67
2019-04-26T19:30:56.852Z,64.13
2019-04-26T19:37:03.472Z,64.88
2019-04-26T19:43:09.646Z,64.71
2019-04-26T19:49:34.433Z,64.82
2019-04-26T19:55:55.001Z,65.05
2019-04-26T20:02:01.567Z,65.25
2019-04-26T20:08:07.828Z,65.42
2019-04-26T20:14:14.138Z,65.82
2019-04-26T20:20:22.110Z,66.25
2019-04-26T20:26:27.823Z,66.94
2019-04-26T20:32:36.989Z,67.55
2019-04-26T20:38:47.359Z,67.73
2019-04-26T20:44:53.807Z,67.76
2019-04-26T20:51:06.655Z,67.88
2019-04-26T20:57:12.425Z,68.16
2019-04-26T21:03:23.696Z,68.28
2019-04-26T21:09:26.955Z,68.49
2019-04-26T21:15:35.948Z,68.53
2019-04-26T21:21:41.972Z,68.62
2019-04-26T21:27:56.834Z,68.41
2019-04-26T21:34:15.212Z,68.48
2019-04-26T21:40:30.605Z,68.76
2019-04-26T21:46:36.624Z,68.80
2019-04-26T21:52:43.316Z,68.61
2019-04-26T21:58:50.307Z,67.71
2019-04-26T22:04:56.218Z,65.08
2019-04-26T22:11:03.572Z,64.07
2019-04-26T22:17:15.928Z,64.03
2019-04-26T22:23:47.599Z,64.34
2019-04-26T22:29:52.754Z,64.13
2019-04-26T22:35:59.336Z,63.46
2019-04-26T22:42:05.507Z,62.29
2019-04-26T22:48:22.994Z,62.19
2019-04-26T22:54:25.729Z,62.23
2019-04-26T23:00:36.074Z,61.84
2019-04-26T23:06:42.461Z,63.02
2019-04-26T23:13:04.658Z,63.33
2019-04-26T23:19:26.629Z,63.82
2019-04-26T23:25:34.297Z,65.03
2019-04-26T23:31:41.653Z,65.54
2019-04-26T23:37:47.656Z,65.29
2019-04-26T23:43:56.537Z,65.78
2019-04-26T23:50:01.362Z,65.37
2019-04-26T23:56:07.772Z,65.02
